sensor_id;sensor_type;location;lat;lon;timestamp;P1;durP1;ratioP1;P2;durP2;ratioP2
46607;SDS011;32330;51.936;7.184;2022-07-23T00:00:57;3.88;;;3.22;;
46607;SDS011;32330;51.936;7.184;2022-07-23T00:03:23;5.18;;;3.70;;
46607;SDS011;32330;51.936;7.184;2022-07-23T00:05:49;5.78;;;3.90;;
46607;SDS011;32330;51.936;7.184;2022-07-23T00:08:15;5.88;;;3.75;;
46607;SDS011;32330;51.936;7.184;2022-07-23T00:10:41;6.47;;;4.32;;
46607;SDS011;32330;51.936;7.184;2022-07-23T00:13:06;5.03;;;4.53;;
46607;SDS011;32330;51.936;7.184;2022-07-23T00:15:32;6.07;;;4.25;;
46607;SDS011;32330;51.936;7.184;2022-07-23T00:17:58;7.78;;;4.35;;
46607;SDS011;32330;51.936;7.184;2022-07-23T00:20:24;5.70;;;3.90;;
46607;SDS011;32330;51.936;7.184;2022-07-23T00:22:50;5.90;;;4.22;;
46607;SDS011;32330;51.936;7.184;2022-07-23T00:25:20;7.20;;;4.47;;
46607;SDS011;32330;51.936;7.184;2022-07-23T00:27:47;6.20;;;4.53;;
46607;SDS011;32330;51.936;7.184;2022-07-23T00:30:12;5.60;;;4.22;;
46607;SDS011;32330;51.936;7.184;2022-07-23T00:32:51;4.90;;;4.40;;
46607;SDS011;32330;51.936;7.184;2022-07-23T00:35:22;6.00;;;4.88;;
46607;SDS011;32330;51.936;7.184;2022-07-23T00:37:49;5.13;;;4.13;;
46607;SDS011;32330;51.936;7.184;2022-07-23T00:40:15;6.53;;;4.80;;
46607;SDS011;32330;51.936;7.184;2022-07-23T00:42:41;6.70;;;4.43;;
46607;SDS011;32330;51.936;7.184;2022-07-23T00:45:07;5.28;;;4.00;;
46607;SDS011;32330;51.936;7.184;2022-07-23T00:47:33;5.32;;;4.10;;
46607;SDS011;32330;51.936;7.184;2022-07-23T00:49:59;5.82;;;4.40;;
46607;SDS011;32330;51.936;7.184;2022-07-23T00:52:25;5.55;;;4.68;;
46607;SDS011;32330;51.936;7.184;2022-07-23T00:54:50;9.48;;;4.70;;
46607;SDS011;32330;51.936;7.184;2022-07-23T00:57:16;9.65;;;4.97;;
46607;SDS011;32330;51.936;7.184;2022-07-23T00:59:42;5.35;;;4.50;;
46607;SDS011;32330;51.936;7.184;2022-07-23T01:02:08;4.80;;;4.25;;
46607;SDS011;32330;51.936;7.184;2022-07-23T01:04:33;4.80;;;4.28;;
46607;SDS011;32330;51.936;7.184;2022-07-23T01:06:59;9.35;;;4.75;;
46607;SDS011;32330;51.936;7.184;2022-07-23T01:09:25;7.18;;;4.82;;
46607;SDS011;32330;51.936;7.184;2022-07-23T01:11:51;6.70;;;4.78;;
46607;SDS011;32330;51.936;7.184;2022-07-23T01:14:20;6.25;;;4.95;;
46607;SDS011;32330;51.936;7.184;2022-07-23T01:16:46;8.23;;;5.40;;
46607;SDS011;32330;51.936;7.184;2022-07-23T01:19:13;6.60;;;5.20;;
46607;SDS011;32330;51.936;7.184;2022-07-23T01:21:42;6.00;;;5.18;;
46607;SDS011;32330;51.936;7.184;2022-07-23T01:24:13;9.25;;;6.32;;
46607;SDS011;32330;51.936;7.184;2022-07-23T01:26:41;7.88;;;5.18;;
46607;SDS011;32330;51.936;7.184;2022-07-23T01:29:11;8.50;;;5.22;;
46607;SDS011;32330;51.936;7.184;2022-07-23T01:31:37;5.80;;;5.18;;
46607;SDS011;32330;51.936;7.184;2022-07-23T01:34:03;7.55;;;5.50;;
46607;SDS011;32330;51.936;7.184;2022-07-23T01:36:29;6.13;;;4.93;;
46607;SDS011;32330;51.936;7.184;2022-07-23T01:38:55;6.65;;;4.97;;
46607;SDS011;32330;51.936;7.184;2022-07-23T01:41:20;6.97;;;5.35;;
46607;SDS011;32330;51.936;7.184;2022-07-23T01:43:46;7.85;;;5.70;;
46607;SDS011;32330;51.936;7.184;2022-07-23T01:46:12;6.28;;;5.13;;
46607;SDS011;32330;51.936;7.184;2022-07-23T01:48:38;8.07;;;5.53;;
46607;SDS011;32330;51.936;7.184;2022-07-23T01:51:04;7.00;;;5.43;;
46607;SDS011;32330;51.936;7.184;2022-07-23T01:53:29;8.38;;;5.50;;
46607;SDS011;32330;51.936;7.184;2022-07-23T01:55:58;7.45;;;5.90;;
46607;SDS011;32330;51.936;7.184;2022-07-23T01:58:24;7.88;;;5.45;;
46607;SDS011;32330;51.936;7.184;2022-07-23T02:00:50;6.85;;;6.00;;
46607;SDS011;32330;51.936;7.184;2022-07-23T02:03:16;7.03;;;5.53;;
46607;SDS011;32330;51.936;7.184;2022-07-23T02:05:42;9.45;;;5.75;;
46607;SDS011;32330;51.936;7.184;2022-07-23T02:08:07;6.57;;;5.85;;
46607;SDS011;32330;51.936;7.184;2022-07-23T02:10:33;6.28;;;5.60;;
46607;SDS011;32330;51.936;7.184;2022-07-23T02:12:58;8.18;;;5.88;;
46607;SDS011;32330;51.936;7.184;2022-07-23T02:15:24;6.85;;;5.57;;
46607;SDS011;32330;51.936;7.184;2022-07-23T02:17:49;6.28;;;5.68;;
46607;SDS011;32330;51.936;7.184;2022-07-23T02:20:15;6.22;;;5.63;;
46607;SDS011;32330;51.936;7.184;2022-07-23T02:22:40;8.18;;;6.05;;
46607;SDS011;32330;51.936;7.184;2022-07-23T02:25:06;6.22;;;5.40;;
46607;SDS011;32330;51.936;7.184;2022-07-23T02:27:33;7.43;;;5.90;;
46607;SDS011;32330;51.936;7.184;2022-07-23T02:29:59;6.95;;;6.22;;
46607;SDS011;32330;51.936;7.184;2022-07-23T02:32:25;6.82;;;6.05;;
46607;SDS011;32330;51.936;7.184;2022-07-23T02:34:50;7.30;;;6.55;;
46607;SDS011;32330;51.936;7.184;2022-07-23T02:37:16;6.95;;;5.80;;
46607;SDS011;32330;51.936;7.184;2022-07-23T02:39:42;7.43;;;6.63;;
46607;SDS011;32330;51.936;7.184;2022-07-23T02:42:08;9.13;;;6.32;;
46607;SDS011;32330;51.936;7.184;2022-07-23T02:44:33;6.80;;;5.95;;
46607;SDS011;32330;51.936;7.184;2022-07-23T02:46:59;8.80;;;6.60;;
46607;SDS011;32330;51.936;7.184;2022-07-23T02:49:25;7.72;;;6.32;;
46607;SDS011;32330;51.936;7.184;2022-07-23T02:51:50;7.93;;;6.80;;
46607;SDS011;32330;51.936;7.184;2022-07-23T02:54:16;10.50;;;6.45;;
46607;SDS011;32330;51.936;7.184;2022-07-23T02:56:42;6.78;;;5.75;;
46607;SDS011;32330;51.936;7.184;2022-07-23T02:59:07;6.55;;;5.93;;
46607;SDS011;32330;51.936;7.184;2022-07-23T03:01:33;9.18;;;6.13;;
46607;SDS011;32330;51.936;7.184;2022-07-23T03:03:59;9.18;;;7.10;;
46607;SDS011;32330;51.936;7.184;2022-07-23T03:06:25;7.03;;;6.30;;
46607;SDS011;32330;51.936;7.184;2022-07-23T03:08:51;6.50;;;5.90;;
46607;SDS011;32330;51.936;7.184;2022-07-23T03:11:16;8.10;;;7.18;;
46607;SDS011;32330;51.936;7.184;2022-07-23T03:13:42;8.93;;;6.57;;
46607;SDS011;32330;51.936;7.184;2022-07-23T03:16:07;7.95;;;6.88;;
46607;SDS011;32330;51.936;7.184;2022-07-23T03:18:33;10.77;;;6.95;;
46607;SDS011;32330;51.936;7.184;2022-07-23T03:21:00;6.35;;;5.80;;
46607;SDS011;32330;51.936;7.184;2022-07-23T03:23:25;7.65;;;6.95;;
46607;SDS011;32330;51.936;7.184;2022-07-23T03:25:51;8.60;;;6.30;;
46607;SDS011;32330;51.936;7.184;2022-07-23T03:28:17;8.68;;;6.82;;
46607;SDS011;32330;51.936;7.184;2022-07-23T03:30:44;7.78;;;6.97;;
46607;SDS011;32330;51.936;7.184;2022-07-23T03:33:14;7.30;;;6.65;;
46607;SDS011;32330;51.936;7.184;2022-07-23T03:35:43;8.18;;;7.18;;
46607;SDS011;32330;51.936;7.184;2022-07-23T03:38:09;7.45;;;6.68;;
46607;SDS011;32330;51.936;7.184;2022-07-23T03:40:35;7.72;;;6.75;;
46607;SDS011;32330;51.936;7.184;2022-07-23T03:43:00;8.85;;;7.90;;
46607;SDS011;32330;51.936;7.184;2022-07-23T03:45:26;6.72;;;6.13;;
46607;SDS011;32330;51.936;7.184;2022-07-23T03:47:52;8.23;;;6.97;;
46607;SDS011;32330;51.936;7.184;2022-07-23T03:50:17;6.80;;;6.20;;
46607;SDS011;32330;51.936;7.184;2022-07-23T03:52:43;8.02;;;7.22;;
46607;SDS011;32330;51.936;7.184;2022-07-23T03:55:09;8.32;;;7.50;;
46607;SDS011;32330;51.936;7.184;2022-07-23T03:57:34;8.45;;;7.65;;
46607;SDS011;32330;51.936;7.184;2022-07-23T04:00:00;7.18;;;6.47;;
46607;SDS011;32330;51.936;7.184;2022-07-23T04:02:26;9.10;;;7.78;;
46607;SDS011;32330;51.936;7.184;2022-07-23T04:04:51;7.90;;;7.07;;
46607;SDS011;32330;51.936;7.184;2022-07-23T04:07:17;9.68;;;7.20;;
46607;SDS011;32330;51.936;7.184;2022-07-23T04:09:43;10.52;;;7.65;;
46607;SDS011;32330;51.936;7.184;2022-07-23T04:12:08;9.30;;;7.22;;
46607;SDS011;32330;51.936;7.184;2022-07-23T04:14:34;8.15;;;7.35;;
46607;SDS011;32330;51.936;7.184;2022-07-23T04:17:00;8.05;;;7.28;;
46607;SDS011;32330;51.936;7.184;2022-07-23T04:19:26;9.07;;;7.75;;
46607;SDS011;32330;51.936;7.184;2022-07-23T04:21:52;10.85;;;7.55;;
46607;SDS011;32330;51.936;7.184;2022-07-23T04:24:17;11.02;;;8.05;;
46607;SDS011;32330;51.936;7.184;2022-07-23T04:26:43;8.63;;;7.55;;
46607;SDS011;32330;51.936;7.184;2022-07-23T04:29:09;9.82;;;8.05;;
46607;SDS011;32330;51.936;7.184;2022-07-23T04:31:35;9.15;;;7.68;;
46607;SDS011;32330;51.936;7.184;2022-07-23T04:34:00;9.02;;;7.47;;
46607;SDS011;32330;51.936;7.184;2022-07-23T04:36:26;10.10;;;7.55;;
46607;SDS011;32330;51.936;7.184;2022-07-23T04:38:52;8.45;;;7.47;;
46607;SDS011;32330;51.936;7.184;2022-07-23T04:41:17;8.00;;;7.20;;
46607;SDS011;32330;51.936;7.184;2022-07-23T04:43:43;8.20;;;7.38;;
46607;SDS011;32330;51.936;7.184;2022-07-23T04:46:08;8.07;;;6.90;;
46607;SDS011;32330;51.936;7.184;2022-07-23T04:48:35;10.98;;;8.25;;
46607;SDS011;32330;51.936;7.184;2022-07-23T04:51:01;10.35;;;7.68;;
46607;SDS011;32330;51.936;7.184;2022-07-23T04:53:27;9.20;;;8.23;;
46607;SDS011;32330;51.936;7.184;2022-07-23T04:55:53;9.25;;;8.40;;
46607;SDS011;32330;51.936;7.184;2022-07-23T04:58:18;9.05;;;8.15;;
46607;SDS011;32330;51.936;7.184;2022-07-23T05:00:45;10.50;;;8.40;;
46607;SDS011;32330;51.936;7.184;2022-07-23T05:03:11;8.68;;;7.78;;
46607;SDS011;32330;51.936;7.184;2022-07-23T05:05:36;9.60;;;8.60;;
46607;SDS011;32330;51.936;7.184;2022-07-23T05:08:02;10.25;;;9.25;;
46607;SDS011;32330;51.936;7.184;2022-07-23T05:10:28;10.10;;;8.55;;
46607;SDS011;32330;51.936;7.184;2022-07-23T05:12:53;9.43;;;8.35;;
46607;SDS011;32330;51.936;7.184;2022-07-23T05:15:19;8.68;;;7.82;;
46607;SDS011;32330;51.936;7.184;2022-07-23T05:17:44;9.20;;;8.27;;
46607;SDS011;32330;51.936;7.184;2022-07-23T05:20:10;10.52;;;8.52;;
46607;SDS011;32330;51.936;7.184;2022-07-23T05:22:35;11.02;;;9.07;;
46607;SDS011;32330;51.936;7.184;2022-07-23T05:25:01;10.88;;;8.98;;
46607;SDS011;32330;51.936;7.184;2022-07-23T05:27:27;14.32;;;8.82;;
46607;SDS011;32330;51.936;7.184;2022-07-23T05:29:52;9.07;;;8.20;;
46607;SDS011;32330;51.936;7.184;2022-07-23T05:32:18;9.82;;;8.60;;
46607;SDS011;32330;51.936;7.184;2022-07-23T05:34:43;9.75;;;8.63;;
46607;SDS011;32330;51.936;7.184;2022-07-23T05:37:09;9.05;;;8.15;;
46607;SDS011;32330;51.936;7.184;2022-07-23T05:39:35;9.00;;;7.90;;
46607;SDS011;32330;51.936;7.184;2022-07-23T05:42:01;9.02;;;8.13;;
46607;SDS011;32330;51.936;7.184;2022-07-23T05:44:26;12.43;;;9.45;;
46607;SDS011;32330;51.936;7.184;2022-07-23T05:46:52;9.25;;;8.27;;
46607;SDS011;32330;51.936;7.184;2022-07-23T05:49:18;9.25;;;8.30;;
46607;SDS011;32330;51.936;7.184;2022-07-23T05:51:43;9.38;;;8.18;;
46607;SDS011;32330;51.936;7.184;2022-07-23T05:54:10;13.85;;;8.50;;
46607;SDS011;32330;51.936;7.184;2022-07-23T05:56:35;10.45;;;8.05;;
46607;SDS011;32330;51.936;7.184;2022-07-23T05:59:01;13.27;;;9.20;;
46607;SDS011;32330;51.936;7.184;2022-07-23T06:01:27;8.93;;;8.00;;
46607;SDS011;32330;51.936;7.184;2022-07-23T06:03:52;9.75;;;8.00;;
46607;SDS011;32330;51.936;7.184;2022-07-23T06:06:18;9.15;;;8.10;;
46607;SDS011;32330;51.936;7.184;2022-07-23T06:08:44;9.05;;;7.72;;
46607;SDS011;32330;51.936;7.184;2022-07-23T06:11:09;10.55;;;8.93;;
46607;SDS011;32330;51.936;7.184;2022-07-23T06:13:35;14.05;;;8.95;;
46607;SDS011;32330;51.936;7.184;2022-07-23T06:16:01;8.43;;;7.63;;
46607;SDS011;32330;51.936;7.184;2022-07-23T06:18:26;10.77;;;8.82;;
46607;SDS011;32330;51.936;7.184;2022-07-23T06:20:52;8.40;;;6.72;;
46607;SDS011;32330;51.936;7.184;2022-07-23T06:23:18;8.80;;;6.70;;
46607;SDS011;32330;51.936;7.184;2022-07-23T06:25:43;10.15;;;6.35;;
46607;SDS011;32330;51.936;7.184;2022-07-23T06:28:09;9.30;;;6.85;;
46607;SDS011;32330;51.936;7.184;2022-07-23T06:30:34;12.55;;;6.35;;
46607;SDS011;32330;51.936;7.184;2022-07-23T06:33:00;7.25;;;6.00;;
46607;SDS011;32330;51.936;7.184;2022-07-23T06:35:25;5.57;;;5.07;;
46607;SDS011;32330;51.936;7.184;2022-07-23T06:37:51;8.55;;;4.93;;
46607;SDS011;32330;51.936;7.184;2022-07-23T06:40:16;10.18;;;3.90;;
46607;SDS011;32330;51.936;7.184;2022-07-23T06:42:42;5.38;;;4.30;;
46607;SDS011;32330;51.936;7.184;2022-07-23T06:45:08;6.45;;;4.05;;
46607;SDS011;32330;51.936;7.184;2022-07-23T06:47:34;5.30;;;3.50;;
46607;SDS011;32330;51.936;7.184;2022-07-23T06:49:59;6.18;;;3.30;;
46607;SDS011;32330;51.936;7.184;2022-07-23T06:52:25;4.82;;;2.95;;
46607;SDS011;32330;51.936;7.184;2022-07-23T06:54:51;4.40;;;2.95;;
46607;SDS011;32330;51.936;7.184;2022-07-23T06:57:17;6.32;;;3.70;;
46607;SDS011;32330;51.936;7.184;2022-07-23T06:59:42;4.05;;;2.58;;
46607;SDS011;32330;51.936;7.184;2022-07-23T07:02:08;3.67;;;2.95;;
46607;SDS011;32330;51.936;7.184;2022-07-23T07:04:34;3.97;;;3.22;;
46607;SDS011;32330;51.936;7.184;2022-07-23T07:07:00;6.68;;;3.40;;
46607;SDS011;32330;51.936;7.184;2022-07-23T07:09:25;8.07;;;4.05;;
46607;SDS011;32330;51.936;7.184;2022-07-23T07:11:51;5.00;;;3.28;;
46607;SDS011;32330;51.936;7.184;2022-07-23T07:14:17;4.40;;;2.78;;
46607;SDS011;32330;51.936;7.184;2022-07-23T07:16:42;4.90;;;2.53;;
46607;SDS011;32330;51.936;7.184;2022-07-23T07:19:08;4.93;;;3.38;;
46607;SDS011;32330;51.936;7.184;2022-07-23T07:21:34;7.25;;;2.90;;
46607;SDS011;32330;51.936;7.184;2022-07-23T07:24:00;4.50;;;2.97;;
46607;SDS011;32330;51.936;7.184;2022-07-23T07:26:25;3.65;;;2.80;;
46607;SDS011;32330;51.936;7.184;2022-07-23T07:28:51;2.63;;;1.90;;
46607;SDS011;32330;51.936;7.184;2022-07-23T07:31:17;4.15;;;2.45;;
46607;SDS011;32330;51.936;7.184;2022-07-23T07:33:42;5.95;;;2.33;;
46607;SDS011;32330;51.936;7.184;2022-07-23T07:36:08;4.30;;;2.80;;
46607;SDS011;32330;51.936;7.184;2022-07-23T07:38:34;4.60;;;2.78;;
46607;SDS011;32330;51.936;7.184;2022-07-23T07:40:59;5.03;;;2.72;;
46607;SDS011;32330;51.936;7.184;2022-07-23T07:43:25;7.05;;;3.45;;
46607;SDS011;32330;51.936;7.184;2022-07-23T07:45:50;8.15;;;3.25;;
46607;SDS011;32330;51.936;7.184;2022-07-23T07:48:16;4.32;;;3.28;;
46607;SDS011;32330;51.936;7.184;2022-07-23T07:50:41;4.82;;;3.30;;
46607;SDS011;32330;51.936;7.184;2022-07-23T07:53:07;7.00;;;4.13;;
46607;SDS011;32330;51.936;7.184;2022-07-23T07:55:33;4.90;;;3.50;;
46607;SDS011;32330;51.936;7.184;2022-07-23T07:57:59;4.65;;;3.70;;
46607;SDS011;32330;51.936;7.184;2022-07-23T08:00:25;5.10;;;2.55;;
46607;SDS011;32330;51.936;7.184;2022-07-23T08:02:51;3.50;;;2.20;;
46607;SDS011;32330;51.936;7.184;2022-07-23T08:05:19;3.63;;;2.05;;
46607;SDS011;32330;51.936;7.184;2022-07-23T08:07:46;3.70;;;2.25;;
46607;SDS011;32330;51.936;7.184;2022-07-23T08:10:12;3.80;;;2.30;;
46607;SDS011;32330;51.936;7.184;2022-07-23T08:12:38;3.40;;;2.17;;
46607;SDS011;32330;51.936;7.184;2022-07-23T08:15:09;3.22;;;2.30;;
46607;SDS011;32330;51.936;7.184;2022-07-23T08:17:35;4.88;;;2.33;;
46607;SDS011;32330;51.936;7.184;2022-07-23T08:20:04;4.15;;;2.20;;
46607;SDS011;32330;51.936;7.184;2022-07-23T08:25:12;2.88;;;2.42;;
46607;SDS011;32330;51.936;7.184;2022-07-23T08:27:38;5.53;;;2.40;;
46607;SDS011;32330;51.936;7.184;2022-07-23T08:30:03;4.63;;;2.03;;
46607;SDS011;32330;51.936;7.184;2022-07-23T08:32:29;5.68;;;2.35;;
46607;SDS011;32330;51.936;7.184;2022-07-23T08:34:55;4.28;;;2.05;;
46607;SDS011;32330;51.936;7.184;2022-07-23T08:37:20;3.22;;;1.80;;
46607;SDS011;32330;51.936;7.184;2022-07-23T08:39:46;3.00;;;1.70;;
46607;SDS011;32330;51.936;7.184;2022-07-23T08:42:12;2.30;;;1.70;;
46607;SDS011;32330;51.936;7.184;2022-07-23T08:44:40;5.72;;;2.20;;
46607;SDS011;32330;51.936;7.184;2022-07-23T08:47:09;6.03;;;1.70;;
46607;SDS011;32330;51.936;7.184;2022-07-23T08:49:36;5.55;;;1.92;;
46607;SDS011;32330;51.936;7.184;2022-07-23T08:52:02;3.67;;;1.73;;
46607;SDS011;32330;51.936;7.184;2022-07-23T08:54:29;4.18;;;1.60;;
46607;SDS011;32330;51.936;7.184;2022-07-23T08:56:55;3.72;;;1.30;;
46607;SDS011;32330;51.936;7.184;2022-07-23T08:59:21;4.13;;;2.90;;
46607;SDS011;32330;51.936;7.184;2022-07-23T09:01:46;4.88;;;1.70;;
46607;SDS011;32330;51.936;7.184;2022-07-23T09:04:12;4.55;;;1.83;;
46607;SDS011;32330;51.936;7.184;2022-07-23T09:06:40;3.60;;;1.67;;
46607;SDS011;32330;51.936;7.184;2022-07-23T09:09:17;5.13;;;2.17;;
46607;SDS011;32330;51.936;7.184;2022-07-23T09:14:39;4.00;;;1.30;;
46607;SDS011;32330;51.936;7.184;2022-07-23T09:17:12;3.42;;;1.85;;
46607;SDS011;32330;51.936;7.184;2022-07-23T09:19:39;2.35;;;1.67;;
46607;SDS011;32330;51.936;7.184;2022-07-23T09:22:19;3.20;;;1.40;;
46607;SDS011;32330;51.936;7.184;2022-07-23T09:30:32;3.37;;;1.60;;
46607;SDS011;32330;51.936;7.184;2022-07-23T09:33:09;4.93;;;1.95;;
46607;SDS011;32330;51.936;7.184;2022-07-23T09:35:53;3.28;;;1.63;;
46607;SDS011;32330;51.936;7.184;2022-07-23T09:38:24;3.47;;;1.40;;
46607;SDS011;32330;51.936;7.184;2022-07-23T09:41:08;2.40;;;0.88;;
46607;SDS011;32330;51.936;7.184;2022-07-23T09:43:35;2.28;;;1.40;;
46607;SDS011;32330;51.936;7.184;2022-07-23T09:46:17;4.28;;;1.10;;
46607;SDS011;32330;51.936;7.184;2022-07-23T09:48:53;3.15;;;1.35;;
46607;SDS011;32330;51.936;7.184;2022-07-23T09:51:21;4.60;;;1.40;;
46607;SDS011;32330;51.936;7.184;2022-07-23T09:53:59;3.35;;;1.20;;
46607;SDS011;32330;51.936;7.184;2022-07-23T09:56:25;2.08;;;1.00;;
46607;SDS011;32330;51.936;7.184;2022-07-23T09:58:52;2.92;;;1.60;;
46607;SDS011;32330;51.936;7.184;2022-07-23T10:01:27;1.95;;;1.27;;
46607;SDS011;32330;51.936;7.184;2022-07-23T10:03:54;3.53;;;1.77;;
46607;SDS011;32330;51.936;7.184;2022-07-23T10:06:19;4.00;;;1.73;;
46607;SDS011;32330;51.936;7.184;2022-07-23T10:08:46;2.40;;;1.40;;
46607;SDS011;32330;51.936;7.184;2022-07-23T10:11:14;2.28;;;1.10;;
46607;SDS011;32330;51.936;7.184;2022-07-23T10:13:40;2.03;;;1.02;;
46607;SDS011;32330;51.936;7.184;2022-07-23T10:16:20;3.85;;;1.23;;
46607;SDS011;32330;51.936;7.184;2022-07-23T10:18:47;5.00;;;1.27;;
46607;SDS011;32330;51.936;7.184;2022-07-23T10:21:13;3.45;;;0.88;;
46607;SDS011;32330;51.936;7.184;2022-07-23T10:24:01;1.90;;;1.00;;
46607;SDS011;32330;51.936;7.184;2022-07-23T10:29:31;3.70;;;1.90;;
46607;SDS011;32330;51.936;7.184;2022-07-23T10:32:20;2.70;;;0.90;;
46607;SDS011;32330;51.936;7.184;2022-07-23T10:38:06;2.25;;;0.90;;
46607;SDS011;32330;51.936;7.184;2022-07-23T10:40:38;3.00;;;1.42;;
46607;SDS011;32330;51.936;7.184;2022-07-23T10:43:22;2.67;;;1.20;;
46607;SDS011;32330;51.936;7.184;2022-07-23T10:45:48;2.65;;;1.00;;
46607;SDS011;32330;51.936;7.184;2022-07-23T10:48:18;5.18;;;1.23;;
46607;SDS011;32330;51.936;7.184;2022-07-23T10:51:06;2.67;;;1.20;;
46607;SDS011;32330;51.936;7.184;2022-07-23T10:56:16;1.95;;;1.00;;
46607;SDS011;32330;51.936;7.184;2022-07-23T10:58:46;4.32;;;1.25;;
46607;SDS011;32330;51.936;7.184;2022-07-23T11:01:31;3.42;;;1.27;;
46607;SDS011;32330;51.936;7.184;2022-07-23T11:03:59;1.30;;;0.80;;
46607;SDS011;32330;51.936;7.184;2022-07-23T11:06:47;2.22;;;0.82;;
46607;SDS011;32330;51.936;7.184;2022-07-23T11:14:59;3.20;;;1.17;;
46607;SDS011;32330;51.936;7.184;2022-07-23T11:17:28;2.83;;;1.13;;
46607;SDS011;32330;51.936;7.184;2022-07-23T11:20:12;3.97;;;1.08;;
46607;SDS011;32330;51.936;7.184;2022-07-23T11:27:47;1.98;;;1.00;;
46607;SDS011;32330;51.936;7.184;2022-07-23T11:32:52;3.22;;;1.20;;
46607;SDS011;32330;51.936;7.184;2022-07-23T11:35:33;1.45;;;0.77;;
46607;SDS011;32330;51.936;7.184;2022-07-23T11:38:05;3.78;;;1.33;;
46607;SDS011;32330;51.936;7.184;2022-07-23T11:40:32;2.08;;;1.08;;
46607;SDS011;32330;51.936;7.184;2022-07-23T11:43:00;2.25;;;1.20;;
46607;SDS011;32330;51.936;7.184;2022-07-23T11:45:38;3.20;;;1.55;;
46607;SDS011;32330;51.936;7.184;2022-07-23T11:48:06;1.95;;;0.90;;
46607;SDS011;32330;51.936;7.184;2022-07-23T11:50:34;1.58;;;0.80;;
46607;SDS011;32330;51.936;7.184;2022-07-23T11:53:01;1.50;;;0.80;;
46607;SDS011;32330;51.936;7.184;2022-07-23T11:55:27;3.42;;;0.85;;
46607;SDS011;32330;51.936;7.184;2022-07-23T11:57:53;2.70;;;1.10;;
46607;SDS011;32330;51.936;7.184;2022-07-23T12:00:20;1.52;;;1.10;;
46607;SDS011;32330;51.936;7.184;2022-07-23T12:02:49;2.97;;;1.10;;
46607;SDS011;32330;51.936;7.184;2022-07-23T12:05:17;3.40;;;1.52;;
46607;SDS011;32330;51.936;7.184;2022-07-23T12:07:45;1.95;;;0.95;;
46607;SDS011;32330;51.936;7.184;2022-07-23T12:10:16;2.33;;;1.10;;
46607;SDS011;32330;51.936;7.184;2022-07-23T12:12:43;3.75;;;1.00;;
46607;SDS011;32330;51.936;7.184;2022-07-23T12:15:11;1.65;;;0.98;;
46607;SDS011;32330;51.936;7.184;2022-07-23T12:17:38;2.08;;;1.13;;
46607;SDS011;32330;51.936;7.184;2022-07-23T12:20:07;4.70;;;1.05;;
46607;SDS011;32330;51.936;7.184;2022-07-23T12:22:35;3.33;;;0.90;;
46607;SDS011;32330;51.936;7.184;2022-07-23T12:25:04;3.00;;;1.30;;
46607;SDS011;32330;51.936;7.184;2022-07-23T12:27:33;1.50;;;0.90;;
46607;SDS011;32330;51.936;7.184;2022-07-23T12:30:14;3.65;;;1.20;;
46607;SDS011;32330;51.936;7.184;2022-07-23T12:33:00;1.90;;;1.08;;
46607;SDS011;32330;51.936;7.184;2022-07-23T12:35:37;2.42;;;1.15;;
46607;SDS011;32330;51.936;7.184;2022-07-23T12:38:07;3.40;;;1.23;;
46607;SDS011;32330;51.936;7.184;2022-07-23T12:40:44;3.35;;;0.88;;
46607;SDS011;32330;51.936;7.184;2022-07-23T12:43:24;1.60;;;1.15;;
46607;SDS011;32330;51.936;7.184;2022-07-23T12:48:26;1.75;;;1.20;;
46607;SDS011;32330;51.936;7.184;2022-07-23T12:50:59;3.25;;;1.13;;
46607;SDS011;32330;51.936;7.184;2022-07-23T12:53:36;4.15;;;1.27;;
46607;SDS011;32330;51.936;7.184;2022-07-23T13:03:54;2.92;;;0.93;;
46607;SDS011;32330;51.936;7.184;2022-07-23T13:06:32;2.25;;;1.33;;
46607;SDS011;32330;51.936;7.184;2022-07-23T13:08:59;2.53;;;1.13;;
46607;SDS011;32330;51.936;7.184;2022-07-23T13:11:25;2.60;;;1.02;;
46607;SDS011;32330;51.936;7.184;2022-07-23T13:13:51;2.67;;;1.23;;
46607;SDS011;32330;51.936;7.184;2022-07-23T13:16:16;2.22;;;1.48;;
46607;SDS011;32330;51.936;7.184;2022-07-23T13:18:42;2.13;;;1.48;;
46607;SDS011;32330;51.936;7.184;2022-07-23T13:21:08;2.15;;;1.30;;
46607;SDS011;32330;51.936;7.184;2022-07-23T13:23:34;1.60;;;0.98;;
46607;SDS011;32330;51.936;7.184;2022-07-23T13:26:00;2.55;;;1.05;;
46607;SDS011;32330;51.936;7.184;2022-07-23T13:28:25;1.85;;;1.10;;
46607;SDS011;32330;51.936;7.184;2022-07-23T13:30:51;2.40;;;1.10;;
46607;SDS011;32330;51.936;7.184;2022-07-23T13:33:22;1.55;;;1.05;;
46607;SDS011;32330;51.936;7.184;2022-07-23T13:38:15;3.08;;;1.20;;
46607;SDS011;32330;51.936;7.184;2022-07-23T13:40:41;2.08;;;1.30;;
46607;SDS011;32330;51.936;7.184;2022-07-23T13:43:09;3.55;;;1.00;;
46607;SDS011;32330;51.936;7.184;2022-07-23T13:45:36;3.40;;;1.30;;
46607;SDS011;32330;51.936;7.184;2022-07-23T13:48:02;2.78;;;1.23;;
46607;SDS011;32330;51.936;7.184;2022-07-23T13:50:29;2.33;;;1.40;;
46607;SDS011;32330;51.936;7.184;2022-07-23T13:52:55;2.92;;;1.23;;
46607;SDS011;32330;51.936;7.184;2022-07-23T13:55:20;2.47;;;1.35;;
46607;SDS011;32330;51.936;7.184;2022-07-23T13:57:46;3.70;;;1.40;;
46607;SDS011;32330;51.936;7.184;2022-07-23T14:00:12;2.50;;;1.23;;
46607;SDS011;32330;51.936;7.184;2022-07-23T14:02:39;2.78;;;1.30;;
46607;SDS011;32330;51.936;7.184;2022-07-23T14:05:05;4.03;;;1.60;;
46607;SDS011;32330;51.936;7.184;2022-07-23T14:07:33;2.63;;;1.55;;
46607;SDS011;32330;51.936;7.184;2022-07-23T14:09:59;1.98;;;0.90;;
46607;SDS011;32330;51.936;7.184;2022-07-23T14:12:25;1.60;;;1.05;;
46607;SDS011;32330;51.936;7.184;2022-07-23T14:14:51;3.45;;;1.50;;
46607;SDS011;32330;51.936;7.184;2022-07-23T14:17:16;3.65;;;1.48;;
46607;SDS011;32330;51.936;7.184;2022-07-23T14:19:42;4.40;;;1.40;;
46607;SDS011;32330;51.936;7.184;2022-07-23T14:22:08;3.40;;;1.60;;
46607;SDS011;32330;51.936;7.184;2022-07-23T14:24:33;2.42;;;1.30;;
46607;SDS011;32330;51.936;7.184;2022-07-23T14:27:00;4.60;;;1.40;;
46607;SDS011;32330;51.936;7.184;2022-07-23T14:29:26;2.40;;;1.50;;
46607;SDS011;32330;51.936;7.184;2022-07-23T14:31:52;3.00;;;1.40;;
46607;SDS011;32330;51.936;7.184;2022-07-23T14:34:18;4.22;;;2.08;;
46607;SDS011;32330;51.936;7.184;2022-07-23T14:36:43;2.67;;;1.40;;
46607;SDS011;32330;51.936;7.184;2022-07-23T14:39:09;3.03;;;1.65;;
46607;SDS011;32330;51.936;7.184;2022-07-23T14:41:36;2.67;;;1.30;;
46607;SDS011;32330;51.936;7.184;2022-07-23T14:44:02;2.53;;;1.10;;
46607;SDS011;32330;51.936;7.184;2022-07-23T14:46:28;3.08;;;1.40;;
46607;SDS011;32330;51.936;7.184;2022-07-23T14:48:54;2.38;;;1.42;;
46607;SDS011;32330;51.936;7.184;2022-07-23T14:51:20;2.63;;;1.40;;
46607;SDS011;32330;51.936;7.184;2022-07-23T14:53:45;2.38;;;1.35;;
46607;SDS011;32330;51.936;7.184;2022-07-23T14:56:11;1.77;;;1.20;;
46607;SDS011;32330;51.936;7.184;2022-07-23T14:58:38;3.15;;;1.70;;
46607;SDS011;32330;51.936;7.184;2022-07-23T15:01:04;2.85;;;1.55;;
46607;SDS011;32330;51.936;7.184;2022-07-23T15:03:30;3.47;;;1.40;;
46607;SDS011;32330;51.936;7.184;2022-07-23T15:05:55;3.42;;;1.60;;
46607;SDS011;32330;51.936;7.184;2022-07-23T15:08:21;2.55;;;1.50;;
46607;SDS011;32330;51.936;7.184;2022-07-23T15:10:47;2.78;;;1.52;;
46607;SDS011;32330;51.936;7.184;2022-07-23T15:13:12;2.90;;;1.45;;
46607;SDS011;32330;51.936;7.184;2022-07-23T15:15:38;2.20;;;1.40;;
46607;SDS011;32330;51.936;7.184;2022-07-23T15:18:04;5.10;;;1.52;;
46607;SDS011;32330;51.936;7.184;2022-07-23T15:20:29;3.63;;;1.48;;
46607;SDS011;32330;51.936;7.184;2022-07-23T15:22:56;3.40;;;1.42;;
46607;SDS011;32330;51.936;7.184;2022-07-23T15:25:21;3.17;;;1.60;;
46607;SDS011;32330;51.936;7.184;2022-07-23T15:27:47;2.88;;;1.75;;
46607;SDS011;32330;51.936;7.184;2022-07-23T15:30:13;3.25;;;1.50;;
46607;SDS011;32330;51.936;7.184;2022-07-23T15:32:38;3.70;;;1.85;;
46607;SDS011;32330;51.936;7.184;2022-07-23T15:35:04;3.55;;;1.35;;